createdAt,value
2023-05-11T00:01:09.671Z,12.4
2023-05-11T00:03:34.773Z,12.4
2023-05-11T00:06:00.881Z,12.3
2023-05-11T00:08:26.976Z,12.3
2023-05-11T00:10:53.066Z,12.3
2023-05-11T00:13:19.150Z,12.3
2023-05-11T00:15:45.250Z,12.3
2023-05-11T00:18:11.349Z,12.3
2023-05-11T00:20:37.444Z,12.2
2023-05-11T00:23:03.539Z,12.3
2023-05-11T00:25:29.638Z,12.3
2023-05-11T00:27:55.720Z,12.3
2023-05-11T00:30:21.821Z,12.3
2023-05-11T00:32:47.923Z,12.3
2023-05-11T00:35:14.001Z,12.3
2023-05-11T00:37:40.103Z,12.3
2023-05-11T00:40:06.207Z,12.2
2023-05-11T00:42:31.301Z,12.1
2023-05-11T00:44:57.416Z,12.1
2023-05-11T00:47:23.506Z,12.1
2023-05-11T00:49:49.585Z,12.1
2023-05-11T00:52:15.682Z,12
2023-05-11T00:54:41.800Z,12
2023-05-11T00:57:07.903Z,11.9
2023-05-11T00:59:33.985Z,12
2023-05-11T01:02:00.087Z,12
2023-05-11T01:04:26.166Z,12
2023-05-11T01:06:52.267Z,12
2023-05-11T01:09:18.362Z,11.9
2023-05-11T01:11:44.466Z,11.9
2023-05-11T01:14:09.558Z,11.9
2023-05-11T01:16:35.661Z,12
2023-05-11T01:19:01.744Z,12
2023-05-11T01:21:27.851Z,11.9
2023-05-11T01:23:53.945Z,11.9
2023-05-11T01:26:20.048Z,11.9
2023-05-11T01:28:46.137Z,11.9
2023-05-11T01:31:12.231Z,11.9
2023-05-11T01:33:38.327Z,11.9
2023-05-11T01:36:04.414Z,11.9
2023-05-11T01:38:30.504Z,11.9
2023-05-11T01:40:56.606Z,11.8
2023-05-11T01:43:22.692Z,11.8
2023-05-11T01:45:47.806Z,11.8
2023-05-11T01:48:13.910Z,11.8
2023-05-11T01:50:40.017Z,11.8
2023-05-11T01:53:06.102Z,11.8
2023-05-11T01:55:32.192Z,11.8
2023-05-11T01:57:58.282Z,11.8
2023-05-11T02:00:24.398Z,11.7
2023-05-11T02:02:50.473Z,11.8
2023-05-11T02:05:16.579Z,11.8
2023-05-11T02:07:42.673Z,11.7
2023-05-11T02:10:08.760Z,11.7
2023-05-11T02:12:34.864Z,11.7
2023-05-11T02:15:00.965Z,11.7
2023-05-11T02:17:26.068Z,11.7
2023-05-11T02:19:52.155Z,11.7
2023-05-11T02:22:18.256Z,11.7
2023-05-11T02:24:44.357Z,11.7
2023-05-11T02:27:10.453Z,11.7
2023-05-11T02:29:36.542Z,11.7
2023-05-11T02:32:02.645Z,11.7
2023-05-11T02:34:28.740Z,11.7
2023-05-11T02:36:54.828Z,11.7
2023-05-11T02:39:20.924Z,11.7
2023-05-11T02:41:47.018Z,11.7
2023-05-11T02:44:13.116Z,11.7
2023-05-11T02:46:39.222Z,11.7
2023-05-11T02:49:04.327Z,11.7
2023-05-11T02:51:30.436Z,11.7
2023-05-11T02:53:56.518Z,11.6
2023-05-11T02:56:22.610Z,11.6
2023-05-11T02:58:48.706Z,11.6
2023-05-11T03:01:14.809Z,11.6
2023-05-11T03:03:40.897Z,11.6
2023-05-11T03:06:06.971Z,11.6
2023-05-11T03:08:33.089Z,11.5
2023-05-11T03:10:59.184Z,11.5
2023-05-11T03:13:25.283Z,11.5
2023-05-11T03:15:51.377Z,11.6
2023-05-11T03:18:17.466Z,11.6
2023-05-11T03:20:42.580Z,11.6
2023-05-11T03:23:08.679Z,11.5
2023-05-11T03:25:34.769Z,11.5
2023-05-11T03:28:00.881Z,11.5
2023-05-11T03:30:26.960Z,11.4
2023-05-11T03:32:53.051Z,11.4
2023-05-11T03:35:19.143Z,11.5
2023-05-11T03:37:45.250Z,11.5
2023-05-11T03:40:11.338Z,11.5
2023-05-11T03:42:37.448Z,11.5
2023-05-11T03:45:03.533Z,11.5
2023-05-11T03:47:29.615Z,11.5
2023-05-11T03:49:55.785Z,11.5
2023-05-11T03:52:20.841Z,11.5
2023-05-11T03:54:46.939Z,11.5
2023-05-11T03:57:13.039Z,11.6
2023-05-11T03:59:39.125Z,11.6
2023-05-11T04:02:05.296Z,11.6
2023-05-11T04:04:31.290Z,11.6
2023-05-11T04:06:57.405Z,11.6
2023-05-11T04:09:23.484Z,11.6
2023-05-11T04:11:49.600Z,11.6
2023-05-11T04:14:15.691Z,11.6
2023-05-11T04:16:41.814Z,11.7
2023-05-11T04:19:07.865Z,11.6
2023-05-11T04:21:33.978Z,11.6
2023-05-11T04:23:59.073Z,11.7
2023-05-11T04:26:25.156Z,11.7
2023-05-11T04:28:51.252Z,11.8
2023-05-11T04:31:17.375Z,11.8
2023-05-11T04:33:43.451Z,11.7
2023-05-11T04:36:09.563Z,11.8
2023-05-11T04:38:35.652Z,11.8
2023-05-11T04:41:01.740Z,11.8
2023-05-11T04:43:27.855Z,11.8
2023-05-11T04:45:53.955Z,11.9
2023-05-11T04:48:20.018Z,11.9
2023-05-11T04:50:46.115Z,11.9
2023-05-11T04:53:12.229Z,12
2023-05-11T04:55:37.330Z,12
2023-05-11T04:58:02.440Z,12
2023-05-11T05:00:28.563Z,12
2023-05-11T05:02:54.645Z,12
2023-05-11T05:05:20.718Z,12.1
2023-05-11T05:07:46.810Z,12.1
2023-05-11T05:10:12.915Z,12.1
2023-05-11T05:12:39.013Z,12.2
2023-05-11T05:15:05.118Z,12.1
2023-05-11T05:17:31.212Z,12.1
2023-05-11T05:19:57.305Z,12.2
2023-05-11T05:22:23.405Z,12.3
2023-05-11T05:24:49.506Z,12.3
2023-05-11T05:27:15.585Z,12.4
2023-05-11T05:29:40.690Z,12.4
2023-05-11T05:32:06.792Z,12.4
2023-05-11T05:34:32.881Z,12.5
2023-05-11T05:36:58.980Z,12.5
2023-05-11T05:39:25.069Z,12.5
2023-05-11T05:41:51.161Z,12.6
2023-05-11T05:44:17.273Z,12.7
2023-05-11T05:46:43.372Z,12.6
2023-05-11T05:49:09.445Z,12.7
2023-05-11T05:51:35.551Z,12.7
2023-05-11T05:54:01.641Z,12.7
2023-05-11T05:56:27.775Z,12.8
2023-05-11T05:58:53.838Z,12.9
2023-05-11T06:01:18.952Z,12.9
2023-05-11T06:03:45.027Z,13
2023-05-11T06:06:11.136Z,13
2023-05-11T06:08:37.216Z,13.1
2023-05-11T06:11:03.387Z,13.1
2023-05-11T06:13:29.412Z,13.2
2023-05-11T06:15:55.530Z,13.2
2023-05-11T06:18:21.613Z,13.2
2023-05-11T06:20:47.688Z,13.2
2023-05-11T06:23:13.800Z,13.3
2023-05-11T06:25:39.885Z,13.3
2023-05-11T06:28:05.993Z,13.3
2023-05-11T06:30:32.073Z,13.2
2023-05-11T06:32:57.186Z,13.2
2023-05-11T06:35:23.289Z,13.2
2023-05-11T06:37:49.443Z,13.2
2023-05-11T06:40:15.473Z,13.1
2023-05-11T06:42:41.746Z,13
2023-05-11T06:45:07.672Z,13.1
2023-05-11T06:47:33.754Z,13.1
2023-05-11T06:49:59.854Z,13
2023-05-11T06:52:25.948Z,12.9
2023-05-11T06:54:52.060Z,13
2023-05-11T06:57:18.141Z,13.1
2023-05-11T06:59:44.233Z,13.1
2023-05-11T07:02:10.328Z,13.2
2023-05-11T07:04:35.439Z,13.3
2023-05-11T07:07:01.725Z,13.3
2023-05-11T07:09:27.713Z,13.3
2023-05-11T07:11:53.723Z,13.4
2023-05-11T07:14:19.811Z,13.5
2023-05-11T07:16:45.919Z,13.6
2023-05-11T07:19:12.021Z,13.6
2023-05-11T07:21:38.152Z,13.7
2023-05-11T07:24:04.190Z,13.6
2023-05-11T07:26:30.316Z,13.6
2023-05-11T07:28:56.396Z,13.8
2023-05-11T07:31:22.487Z,13.9
2023-05-11T07:33:48.596Z,13.9
2023-05-11T07:36:13.683Z,14
2023-05-11T07:38:39.955Z,14
2023-05-11T07:41:05.884Z,13.9
2023-05-11T07:43:31.972Z,14.1
2023-05-11T07:45:58.073Z,14.2
2023-05-11T07:48:24.167Z,14
2023-05-11T07:50:50.256Z,14
2023-05-11T07:53:16.407Z,14
2023-05-11T07:55:42.623Z,14
2023-05-11T07:58:08.635Z,14.2
2023-05-11T08:00:34.722Z,14.2
2023-05-11T08:03:00.888Z,14.2
2023-05-11T08:05:26.977Z,14.2
2023-05-11T08:07:51.948Z,14.4
2023-05-11T08:10:18.040Z,14.4
2023-05-11T08:12:44.159Z,14.3
2023-05-11T08:15:10.313Z,14.4
2023-05-11T08:17:36.321Z,14.5
2023-05-11T08:20:02.427Z,14.2
2023-05-11T08:22:28.515Z,14.2
2023-05-11T08:24:54.630Z,14.2
2023-05-11T08:27:20.718Z,14.2
2023-05-11T08:29:46.834Z,14.4
2023-05-11T08:32:12.894Z,14.6
2023-05-11T08:34:39.001Z,14.7
2023-05-11T08:37:05.104Z,14.8
2023-05-11T08:39:30.202Z,14.9
2023-05-11T08:41:56.301Z,14.7
2023-05-11T08:44:22.397Z,14.8
2023-05-11T08:46:48.489Z,14.8
2023-05-11T08:49:14.575Z,14.9
2023-05-11T08:51:40.673Z,14.9
2023-05-11T08:54:06.782Z,14.9
2023-05-11T08:56:32.875Z,14.9
2023-05-11T08:58:58.985Z,14.8
2023-05-11T09:01:25.059Z,14.7
2023-05-11T09:03:51.303Z,14.8
2023-05-11T09:06:17.256Z,14.7
2023-05-11T09:08:43.341Z,14.6
2023-05-11T09:11:08.465Z,14.6
2023-05-11T09:13:34.568Z,14.6
2023-05-11T09:16:00.682Z,14.9
2023-05-11T09:18:26.741Z,14.8
2023-05-11T09:20:52.835Z,15
2023-05-11T09:23:18.944Z,15.3
2023-05-11T09:25:45.029Z,15.1
2023-05-11T09:28:11.120Z,15.1
2023-05-11T09:30:37.268Z,14.8
2023-05-11T09:33:03.326Z,14.8
2023-05-11T09:35:29.580Z,14.9
2023-05-11T09:37:55.570Z,15.1
2023-05-11T09:40:21.618Z,15.2
2023-05-11T09:42:46.726Z,15.1
2023-05-11T09:45:12.808Z,15.1
2023-05-11T09:47:38.920Z,15.1
2023-05-11T09:50:05.002Z,15
2023-05-11T09:52:31.102Z,15.1
2023-05-11T09:54:57.177Z,15.3
2023-05-11T09:57:23.310Z,15.3
2023-05-11T09:59:49.383Z,15.2
2023-05-11T10:02:15.481Z,15.2
2023-05-11T10:04:41.555Z,14.9
2023-05-11T10:07:07.663Z,14.8
2023-05-11T10:09:33.751Z,14.8
2023-05-11T10:14:25.953Z,15.1
2023-05-11T10:16:51.064Z,15.1
2023-05-11T10:19:17.161Z,15.1
2023-05-11T10:21:43.261Z,15.2
2023-05-11T10:24:09.350Z,15.1
2023-05-11T10:26:35.455Z,14.9
2023-05-11T10:29:01.521Z,14.9
2023-05-11T10:31:27.637Z,14.8
2023-05-11T10:33:53.736Z,14.8
2023-05-11T10:36:19.822Z,14.8
2023-05-11T10:38:45.914Z,14.8
2023-05-11T10:41:12.014Z,15.1
2023-05-11T10:43:38.123Z,15
2023-05-11T10:46:04.227Z,15.1
2023-05-11T10:48:29.307Z,15.2
2023-05-11T10:50:55.402Z,15.2
2023-05-11T10:53:21.509Z,15.3
2023-05-11T10:55:47.629Z,15.2
2023-05-11T11:03:05.878Z,15.1
2023-05-11T11:05:30.992Z,15
2023-05-11T11:07:56.151Z,15.1
2023-05-11T11:10:22.220Z,15.4
2023-05-11T11:12:48.367Z,15.5
2023-05-11T11:15:14.397Z,15.3
2023-05-11T11:17:40.530Z,15.1
2023-05-11T11:20:06.594Z,15.4
2023-05-11T11:22:32.670Z,15.4
2023-05-11T11:24:58.765Z,15.1
2023-05-11T11:27:24.853Z,14.9
2023-05-11T11:29:49.985Z,14.9
2023-05-11T11:32:15.100Z,15
2023-05-11T11:34:41.203Z,15.1
2023-05-11T11:37:07.291Z,15
2023-05-11T11:39:33.391Z,15.1
2023-05-11T11:41:59.471Z,15
2023-05-11T11:44:25.569Z,15.1
2023-05-11T11:46:51.674Z,15.3
2023-05-11T11:49:17.770Z,15.4
2023-05-11T11:51:43.855Z,15.7
2023-05-11T11:54:09.941Z,15.9
2023-05-11T11:56:36.046Z,15.9
2023-05-11T11:59:02.134Z,15.8
2023-05-11T12:01:28.234Z,15.9
2023-05-11T12:03:53.332Z,16
2023-05-11T12:06:19.438Z,16
2023-05-11T12:08:45.510Z,15.7
2023-05-11T12:11:11.746Z,15.9
2023-05-11T12:13:37.852Z,15.8
2023-05-11T12:16:03.807Z,16
2023-05-11T12:18:29.898Z,16.1
2023-05-11T12:20:55.996Z,16
2023-05-11T12:23:22.099Z,15.9
2023-05-11T12:25:48.387Z,16.1
2023-05-11T12:28:14.502Z,15.9
2023-05-11T12:30:40.513Z,15.9
2023-05-11T12:33:06.487Z,16.2
2023-05-11T12:35:31.660Z,16
2023-05-11T12:37:57.704Z,16
2023-05-11T12:40:23.769Z,15.7
2023-05-11T12:42:49.873Z,16
2023-05-11T12:45:15.976Z,16.2
2023-05-11T12:47:42.071Z,16.4
2023-05-11T12:50:08.160Z,16.7
2023-05-11T12:52:34.249Z,16.9
2023-05-11T12:55:00.361Z,17.1
2023-05-11T12:57:26.445Z,17.3
2023-05-11T12:59:52.545Z,17.3
2023-05-11T13:02:18.657Z,17.3
2023-05-11T13:05:11.850Z,17.4
2023-05-11T13:07:10.837Z,17.4
2023-05-11T13:09:35.956Z,17.5
2023-05-11T13:12:02.025Z,17.5
2023-05-11T13:14:28.126Z,17.3
2023-05-11T13:16:54.225Z,17.4
2023-05-11T13:19:20.314Z,17.1
2023-05-11T13:21:46.406Z,16.8
2023-05-11T13:24:12.490Z,16.6
2023-05-11T13:26:38.602Z,16.4
2023-05-11T13:29:04.740Z,16.5
2023-05-11T13:31:30.794Z,16.9
2023-05-11T13:33:56.880Z,17.1
2023-05-11T13:36:22.995Z,17.4
2023-05-11T13:38:49.109Z,17.7
2023-05-11T13:41:14.192Z,17.7
2023-05-11T13:43:40.320Z,17.6
2023-05-11T13:46:06.394Z,17.5
2023-05-11T13:48:32.464Z,17.6
2023-05-11T13:50:58.560Z,17.8
2023-05-11T13:53:24.664Z,18
2023-05-11T13:55:50.814Z,17.6
2023-05-11T13:58:16.837Z,17.2
2023-05-11T14:00:42.926Z,17.3
2023-05-11T14:03:09.056Z,17.3
2023-05-11T14:05:35.147Z,17.3
2023-05-11T14:08:01.251Z,17.7
2023-05-11T14:10:27.317Z,17.2
2023-05-11T14:12:52.472Z,17.3
2023-05-11T14:15:18.521Z,17.4
2023-05-11T14:17:44.614Z,17.5
2023-05-11T14:20:10.714Z,17.5
2023-05-11T14:22:36.814Z,17.7
2023-05-11T14:25:02.946Z,17.8
2023-05-11T14:27:29.012Z,17.7
2023-05-11T14:29:55.110Z,17.9
2023-05-11T14:32:21.232Z,17.8
2023-05-11T14:34:47.280Z,17.6
2023-05-11T14:37:13.379Z,17.2
2023-05-11T14:39:39.470Z,17.2
2023-05-11T14:42:05.554Z,17.2
2023-05-11T14:44:30.677Z,17.3
2023-05-11T14:46:56.782Z,17.8
2023-05-11T14:49:22.858Z,17.9
2023-05-11T14:51:48.945Z,18.1
2023-05-11T14:54:15.062Z,18.1
2023-05-11T14:56:41.152Z,18
2023-05-11T14:59:07.305Z,17.9
2023-05-11T15:01:33.336Z,18.1
2023-05-11T15:03:59.484Z,17.6
2023-05-11T15:06:25.681Z,17.1
2023-05-11T15:08:51.734Z,17
2023-05-11T15:11:17.819Z,17.2
2023-05-11T15:13:43.796Z,17.3
2023-05-11T15:16:08.935Z,17.3
2023-05-11T15:18:35.013Z,17.1
2023-05-11T15:21:01.121Z,16.9
2023-05-11T15:23:27.261Z,16.9
2023-05-11T15:25:53.302Z,16.8
2023-05-11T15:28:19.389Z,17
2023-05-11T15:33:11.788Z,17.1
2023-05-11T15:35:37.684Z,16.9
2023-05-11T15:38:03.771Z,16.4
2023-05-11T15:40:29.892Z,16.1
2023-05-11T15:42:55.964Z,16.2
2023-05-11T15:45:22.184Z,16.2
2023-05-11T15:47:47.163Z,16.4
2023-05-11T15:50:13.307Z,16.3
2023-05-11T15:52:39.419Z,16.2
2023-05-11T15:55:05.440Z,16.3
2023-05-11T15:57:31.563Z,16.4
2023-05-11T15:59:57.648Z,16
2023-05-11T16:02:23.732Z,16.1
2023-05-11T16:04:49.864Z,16
2023-05-11T16:07:16.008Z,16.1
2023-05-11T16:09:42.022Z,15.9
2023-05-11T16:12:08.132Z,16
2023-05-11T16:14:34.214Z,16
2023-05-11T16:17:00.319Z,16
2023-05-11T16:19:25.425Z,15.9
2023-05-11T16:21:51.519Z,15.8
2023-05-11T16:24:17.602Z,15.7
2023-05-11T16:26:43.750Z,15.7
2023-05-11T16:29:09.783Z,15.7
2023-05-11T16:31:35.883Z,15.6
2023-05-11T16:34:01.990Z,15.5
2023-05-11T16:36:28.064Z,15.4
2023-05-11T16:38:54.193Z,15.4
2023-05-11T16:41:20.264Z,15.4
2023-05-11T16:43:46.368Z,15.4
2023-05-11T16:46:12.471Z,15.4
2023-05-11T16:48:38.569Z,15.4
2023-05-11T16:51:03.715Z,15.3
2023-05-11T16:53:29.811Z,15.2
2023-05-11T16:55:55.872Z,15.3
2023-05-11T20:32:45.572Z,12.3
2023-05-11T21:07:51.823Z,12
2023-05-11T21:16:54.877Z,12
2023-05-11T21:25:57.941Z,12
2023-05-11T21:55:01.742Z,11.8
2023-05-11T22:04:04.812Z,11.8
2023-05-11T22:06:32.640Z,11.7
2023-05-11T22:08:59.179Z,11.7
2023-05-11T22:11:25.253Z,11.7
2023-05-11T22:13:50.421Z,11.7
2023-05-11T22:16:15.528Z,11.6
2023-05-11T22:18:41.634Z,11.6
2023-05-11T22:21:07.714Z,11.6
2023-05-11T22:23:33.814Z,11.6
2023-05-11T22:25:59.931Z,11.6
2023-05-11T22:28:26.017Z,11.5
2023-05-11T22:30:52.161Z,11.5
2023-05-11T22:33:18.201Z,11.5
2023-05-11T22:35:44.358Z,11.5
2023-05-11T22:38:10.385Z,11.5
2023-05-11T22:40:36.482Z,11.5
2023-05-11T22:43:02.584Z,11.5
2023-05-11T22:45:28.694Z,11.5
2023-05-11T22:47:53.765Z,11.6
2023-05-11T22:50:19.888Z,11.5
2023-05-11T22:52:45.987Z,11.6
2023-05-11T22:55:12.049Z,11.6
2023-05-11T22:57:38.145Z,11.6
2023-05-11T23:00:04.398Z,11.6
2023-05-11T23:02:29.437Z,11.7
2023-05-11T23:04:54.561Z,11.7
2023-05-11T23:07:20.648Z,11.7
2023-05-11T23:09:46.717Z,11.7
2023-05-11T23:12:12.851Z,11.8
2023-05-11T23:14:38.916Z,11.8
2023-05-11T23:17:05.020Z,11.8
2023-05-11T23:19:31.073Z,11.8
2023-05-11T23:21:57.142Z,11.9
2023-05-11T23:24:23.270Z,11.9
2023-05-11T23:26:49.347Z,11.9
2023-05-11T23:29:15.454Z,11.9
2023-05-11T23:31:41.526Z,11.9
2023-05-11T23:34:07.619Z,11.9
2023-05-11T23:36:33.734Z,11.9
2023-05-11T23:38:59.821Z,11.9
2023-05-11T23:41:25.921Z,11.9
2023-05-11T23:43:52.021Z,11.9
2023-05-11T23:46:18.118Z,11.9
2023-05-11T23:48:44.209Z,11.9
2023-05-11T23:51:10.311Z,11.9
2023-05-11T23:53:36.393Z,11.9
2023-05-11T23:56:01.499Z,11.9
2023-05-11T23:58:26.640Z,12
